sensor_id;sensor_type;location;lat;lon;timestamp;temperature;humidity
66343;DHT22;53144;51.524;5.080;2022-10-14T00:00:30;13.17;98.05
66343;DHT22;53144;51.524;5.080;2022-10-14T00:02:55;13.22;98.03
66343;DHT22;53144;51.524;5.080;2022-10-14T00:05:21;13.21;97.91
66343;DHT22;53144;51.524;5.080;2022-10-14T00:07:46;13.18;97.90
66343;DHT22;53144;51.524;5.080;2022-10-14T00:10:12;13.21;97.93
66343;DHT22;53144;51.524;5.080;2022-10-14T00:12:37;13.15;97.83
66343;DHT22;53144;51.524;5.080;2022-10-14T00:15:03;13.15;97.90
66343;DHT22;53144;51.524;5.080;2022-10-14T00:17:28;13.18;97.87
66343;DHT22;53144;51.524;5.080;2022-10-14T00:19:53;13.12;97.82
66343;DHT22;53144;51.524;5.080;2022-10-14T00:22:19;13.14;97.82
66343;DHT22;53144;51.524;5.080;2022-10-14T00:24:44;13.18;97.81
66343;DHT22;53144;51.524;5.080;2022-10-14T00:27:09;13.15;97.82
66343;DHT22;53144;51.524;5.080;2022-10-14T00:29:35;13.12;97.86
66343;DHT22;53144;51.524;5.080;2022-10-14T00:32:00;13.10;98.02
66343;DHT22;53144;51.524;5.080;2022-10-14T00:34:25;13.08;98.17
66343;DHT22;53144;51.524;5.080;2022-10-14T00:36:51;13.11;98.17
66343;DHT22;53144;51.524;5.080;2022-10-14T00:39:16;13.11;98.25
66343;DHT22;53144;51.524;5.080;2022-10-14T00:41:42;13.10;98.23
66343;DHT22;53144;51.524;5.080;2022-10-14T00:46:44;13.08;98.33
66343;DHT22;53144;51.524;5.080;2022-10-14T00:49:33;13.06;98.36
66343;DHT22;53144;51.524;5.080;2022-10-14T00:52:10;13.03;98.50
66343;DHT22;53144;51.524;5.080;2022-10-14T00:54:39;13.06;98.46
66343;DHT22;53144;51.524;5.080;2022-10-14T00:57:06;13.04;98.53
66343;DHT22;53144;51.524;5.080;2022-10-14T00:59:33;13.06;98.53
66343;DHT22;53144;51.524;5.080;2022-10-14T01:01:58;13.03;98.59
66343;DHT22;53144;51.524;5.080;2022-10-14T01:04:25;13.03;98.56
66343;DHT22;53144;51.524;5.080;2022-10-14T01:12:30;13.01;98.54
66343;DHT22;53144;51.524;5.080;2022-10-14T01:18:08;13.00;98.58
66343;DHT22;53144;51.524;5.080;2022-10-14T01:20:56;13.01;98.66
66343;DHT22;53144;51.524;5.080;2022-10-14T01:31:44;13.00;98.63
66343;DHT22;53144;51.524;5.080;2022-10-14T01:34:12;12.99;98.74
66343;DHT22;53144;51.524;5.080;2022-10-14T01:36:44;12.97;98.92
66343;DHT22;53144;51.524;5.080;2022-10-14T01:39:43;12.97;98.92
66343;DHT22;53144;51.524;5.080;2022-10-14T01:42:21;12.96;99.01
66343;DHT22;53144;51.524;5.080;2022-10-14T01:44:52;12.96;98.95
66343;DHT22;53144;51.524;5.080;2022-10-14T01:47:19;12.99;98.87
66343;DHT22;53144;51.524;5.080;2022-10-14T01:49:51;12.94;98.95
66343;DHT22;53144;51.524;5.080;2022-10-14T01:52:20;13.00;98.89
66343;DHT22;53144;51.524;5.080;2022-10-14T01:54:51;13.00;98.91
66343;DHT22;53144;51.524;5.080;2022-10-14T01:57:25;12.99;98.85
66343;DHT22;53144;51.524;5.080;2022-10-14T01:59:52;12.99;98.94
66343;DHT22;53144;51.524;5.080;2022-10-14T02:02:18;12.96;98.97
66343;DHT22;53144;51.524;5.080;2022-10-14T02:04:44;12.96;99.21
66343;DHT22;53144;51.524;5.080;2022-10-14T02:17:33;12.96;99.34
66343;DHT22;53144;51.524;5.080;2022-10-14T02:22:47;12.97;99.46
66343;DHT22;53144;51.524;5.080;2022-10-14T02:25:19;13.00;99.54
66343;DHT22;53144;51.524;5.080;2022-10-14T02:27:46;13.03;99.51
66343;DHT22;53144;51.524;5.080;2022-10-14T02:30:13;13.03;99.49
66343;DHT22;53144;51.524;5.080;2022-10-14T02:32:40;13.04;99.43
66343;DHT22;53144;51.524;5.080;2022-10-14T02:35:07;13.06;99.47
66343;DHT22;53144;51.524;5.080;2022-10-14T02:37:35;13.08;99.49
66343;DHT22;53144;51.524;5.080;2022-10-14T02:40:27;13.10;99.53
66343;DHT22;53144;51.524;5.080;2022-10-14T02:42:54;13.11;99.52
66343;DHT22;53144;51.524;5.080;2022-10-14T02:45:19;13.14;99.51
66343;DHT22;53144;51.524;5.080;2022-10-14T02:47:44;13.11;99.49
66343;DHT22;53144;51.524;5.080;2022-10-14T02:50:10;13.08;99.55
66343;DHT22;53144;51.524;5.080;2022-10-14T02:52:36;13.08;99.60
66343;DHT22;53144;51.524;5.080;2022-10-14T02:55:01;13.07;99.65
66343;DHT22;53144;51.524;5.080;2022-10-14T02:57:26;13.07;99.69
66343;DHT22;53144;51.524;5.080;2022-10-14T02:59:52;13.08;99.69
66343;DHT22;53144;51.524;5.080;2022-10-14T03:02:17;13.14;99.59
66343;DHT22;53144;51.524;5.080;2022-10-14T03:04:42;13.08;99.72
66343;DHT22;53144;51.524;5.080;2022-10-14T03:07:08;13.11;99.69
66343;DHT22;53144;51.524;5.080;2022-10-14T03:09:33;13.08;99.82
66343;DHT22;53144;51.524;5.080;2022-10-14T03:11:58;13.10;99.80
66343;DHT22;53144;51.524;5.080;2022-10-14T03:14:24;13.11;99.81
66343;DHT22;53144;51.524;5.080;2022-10-14T03:16:49;13.12;99.78
66343;DHT22;53144;51.524;5.080;2022-10-14T03:19:14;13.14;99.69
66343;DHT22;53144;51.524;5.080;2022-10-14T03:21:40;13.14;99.77
66343;DHT22;53144;51.524;5.080;2022-10-14T03:24:08;13.12;99.79
66343;DHT22;53144;51.524;5.080;2022-10-14T03:26:34;13.11;99.84
66343;DHT22;53144;51.524;5.080;2022-10-14T03:28:59;13.11;99.87
66343;DHT22;53144;51.524;5.080;2022-10-14T03:31:25;13.15;99.84
66343;DHT22;53144;51.524;5.080;2022-10-14T03:33:50;13.12;99.80
66343;DHT22;53144;51.524;5.080;2022-10-14T03:36:15;13.15;99.84
66343;DHT22;53144;51.524;5.080;2022-10-14T03:38:41;13.12;99.90
66343;DHT22;53144;51.524;5.080;2022-10-14T03:41:06;13.15;99.87
66343;DHT22;53144;51.524;5.080;2022-10-14T03:43:31;13.15;99.82
66343;DHT22;53144;51.524;5.080;2022-10-14T03:45:57;13.18;99.87
66343;DHT22;53144;51.524;5.080;2022-10-14T03:48:22;13.14;99.82
66343;DHT22;53144;51.524;5.080;2022-10-14T03:50:48;13.14;99.88
66343;DHT22;53144;51.524;5.080;2022-10-14T03:53:13;13.18;99.88
66343;DHT22;53144;51.524;5.080;2022-10-14T03:55:39;13.20;99.86
66343;DHT22;53144;51.524;5.080;2022-10-14T03:58:04;13.21;99.81
66343;DHT22;53144;51.524;5.080;2022-10-14T04:00:30;13.21;99.85
66343;DHT22;53144;51.524;5.080;2022-10-14T04:02:55;13.20;99.87
66343;DHT22;53144;51.524;5.080;2022-10-14T04:05:21;13.20;99.83
66343;DHT22;53144;51.524;5.080;2022-10-14T04:07:46;13.21;99.83
66343;DHT22;53144;51.524;5.080;2022-10-14T04:10:12;13.22;99.92
66343;DHT22;53144;51.524;5.080;2022-10-14T04:12:37;13.18;99.87
66343;DHT22;53144;51.524;5.080;2022-10-14T04:15:06;13.20;99.95
66343;DHT22;53144;51.524;5.080;2022-10-14T04:17:31;13.21;99.94
66343;DHT22;53144;51.524;5.080;2022-10-14T04:19:57;13.22;99.97
66343;DHT22;53144;51.524;5.080;2022-10-14T04:22:22;13.20;99.97
66343;DHT22;53144;51.524;5.080;2022-10-14T04:24:48;13.24;99.99
66343;DHT22;53144;51.524;5.080;2022-10-14T04:27:13;13.22;99.96
66343;DHT22;53144;51.524;5.080;2022-10-14T04:29:39;13.24;99.99
66343;DHT22;53144;51.524;5.080;2022-10-14T04:32:04;13.24;99.99
66343;DHT22;53144;51.524;5.080;2022-10-14T04:34:29;13.27;99.97
66343;DHT22;53144;51.524;5.080;2022-10-14T04:36:54;13.25;99.96
66343;DHT22;53144;51.524;5.080;2022-10-14T04:39:20;13.25;99.95
66343;DHT22;53144;51.524;5.080;2022-10-14T04:41:45;13.28;99.98
66343;DHT22;53144;51.524;5.080;2022-10-14T04:44:11;13.30;99.99
66343;DHT22;53144;51.524;5.080;2022-10-14T04:46:36;13.30;99.90
66343;DHT22;53144;51.524;5.080;2022-10-14T04:49:02;13.31;99.88
66343;DHT22;53144;51.524;5.080;2022-10-14T04:51:27;13.31;99.87
66343;DHT22;53144;51.524;5.080;2022-10-14T04:53:52;13.32;99.89
66343;DHT22;53144;51.524;5.080;2022-10-14T04:56:18;13.32;99.88
66343;DHT22;53144;51.524;5.080;2022-10-14T04:58:43;13.41;99.81
66343;DHT22;53144;51.524;5.080;2022-10-14T05:01:08;13.41;99.77
66343;DHT22;53144;51.524;5.080;2022-10-14T05:03:34;13.40;99.79
66343;DHT22;53144;51.524;5.080;2022-10-14T05:05:59;13.41;99.84
66343;DHT22;53144;51.524;5.080;2022-10-14T05:08:25;13.40;99.85
66343;DHT22;53144;51.524;5.080;2022-10-14T05:10:50;13.41;99.88
66343;DHT22;53144;51.524;5.080;2022-10-14T05:13:16;13.44;99.88
66343;DHT22;53144;51.524;5.080;2022-10-14T05:15:41;13.40;99.87
66343;DHT22;53144;51.524;5.080;2022-10-14T05:18:10;13.44;99.83
66343;DHT22;53144;51.524;5.080;2022-10-14T05:20:35;13.47;99.89
66343;DHT22;53144;51.524;5.080;2022-10-14T05:23:03;13.47;99.90
66343;DHT22;53144;51.524;5.080;2022-10-14T05:25:28;13.41;99.95
66343;DHT22;53144;51.524;5.080;2022-10-14T05:27:53;13.47;99.91
66343;DHT22;53144;51.524;5.080;2022-10-14T05:30:19;13.45;99.88
66343;DHT22;53144;51.524;5.080;2022-10-14T05:32:44;13.49;99.84
66343;DHT22;53144;51.524;5.080;2022-10-14T05:35:09;13.49;99.84
66343;DHT22;53144;51.524;5.080;2022-10-14T05:37:35;13.48;99.85
66343;DHT22;53144;51.524;5.080;2022-10-14T05:40:00;13.48;99.77
66343;DHT22;53144;51.524;5.080;2022-10-14T05:42:26;13.54;99.74
66343;DHT22;53144;51.524;5.080;2022-10-14T05:44:51;13.55;99.76
66343;DHT22;53144;51.524;5.080;2022-10-14T05:47:17;13.54;99.65
66343;DHT22;53144;51.524;5.080;2022-10-14T05:49:42;13.55;99.57
66343;DHT22;53144;51.524;5.080;2022-10-14T05:52:07;13.57;99.63
66343;DHT22;53144;51.524;5.080;2022-10-14T05:54:33;13.59;99.58
66343;DHT22;53144;51.524;5.080;2022-10-14T05:56:59;13.57;99.46
66343;DHT22;53144;51.524;5.080;2022-10-14T05:59:24;13.59;99.44
66343;DHT22;53144;51.524;5.080;2022-10-14T06:01:49;13.61;99.38
66343;DHT22;53144;51.524;5.080;2022-10-14T06:04:17;13.63;99.31
66343;DHT22;53144;51.524;5.080;2022-10-14T06:06:42;13.62;99.27
66343;DHT22;53144;51.524;5.080;2022-10-14T06:09:08;13.63;99.22
66343;DHT22;53144;51.524;5.080;2022-10-14T06:11:33;13.66;99.22
66343;DHT22;53144;51.524;5.080;2022-10-14T06:13:58;13.61;99.18
66343;DHT22;53144;51.524;5.080;2022-10-14T06:16:24;13.69;99.21
66343;DHT22;53144;51.524;5.080;2022-10-14T06:18:49;13.66;99.05
66343;DHT22;53144;51.524;5.080;2022-10-14T06:21:14;13.68;99.07
66343;DHT22;53144;51.524;5.080;2022-10-14T06:23:40;13.65;99.04
66343;DHT22;53144;51.524;5.080;2022-10-14T06:26:05;13.68;99.06
66343;DHT22;53144;51.524;5.080;2022-10-14T06:28:31;13.68;99.08
66343;DHT22;53144;51.524;5.080;2022-10-14T06:30:57;13.71;99.07
66343;DHT22;53144;51.524;5.080;2022-10-14T06:33:22;13.68;99.11
66343;DHT22;53144;51.524;5.080;2022-10-14T06:35:47;13.68;99.04
66343;DHT22;53144;51.524;5.080;2022-10-14T06:38:13;13.73;99.01
66343;DHT22;53144;51.524;5.080;2022-10-14T06:40:38;13.68;99.00
66343;DHT22;53144;51.524;5.080;2022-10-14T06:43:04;13.71;98.93
66343;DHT22;53144;51.524;5.080;2022-10-14T06:45:30;13.69;99.02
66343;DHT22;53144;51.524;5.080;2022-10-14T06:47:55;13.73;98.90
66343;DHT22;53144;51.524;5.080;2022-10-14T06:50:21;13.73;99.00
66343;DHT22;53144;51.524;5.080;2022-10-14T06:52:46;13.73;98.95
66343;DHT22;53144;51.524;5.080;2022-10-14T06:55:12;13.73;98.92
66343;DHT22;53144;51.524;5.080;2022-10-14T06:57:38;13.72;98.87
66343;DHT22;53144;51.524;5.080;2022-10-14T07:00:04;13.72;98.93
66343;DHT22;53144;51.524;5.080;2022-10-14T07:02:30;13.72;98.92
66343;DHT22;53144;51.524;5.080;2022-10-14T07:04:55;13.76;98.90
66343;DHT22;53144;51.524;5.080;2022-10-14T07:07:21;13.73;98.88
66343;DHT22;53144;51.524;5.080;2022-10-14T07:09:46;13.76;98.81
66343;DHT22;53144;51.524;5.080;2022-10-14T07:12:11;13.75;98.97
66343;DHT22;53144;51.524;5.080;2022-10-14T07:14:37;13.73;99.03
66343;DHT22;53144;51.524;5.080;2022-10-14T07:17:02;13.75;99.06
66343;DHT22;53144;51.524;5.080;2022-10-14T07:19:28;13.80;99.16
66343;DHT22;53144;51.524;5.080;2022-10-14T07:21:53;13.83;99.09
66343;DHT22;53144;51.524;5.080;2022-10-14T07:24:19;13.83;98.95
66343;DHT22;53144;51.524;5.080;2022-10-14T07:26:44;13.82;99.00
66343;DHT22;53144;51.524;5.080;2022-10-14T07:29:10;13.86;99.00
66343;DHT22;53144;51.524;5.080;2022-10-14T07:31:35;13.85;98.98
66343;DHT22;53144;51.524;5.080;2022-10-14T07:34:01;13.87;98.89
66343;DHT22;53144;51.524;5.080;2022-10-14T07:36:27;13.89;98.93
66343;DHT22;53144;51.524;5.080;2022-10-14T07:38:52;13.86;98.99
66343;DHT22;53144;51.524;5.080;2022-10-14T07:41:21;13.86;99.01
66343;DHT22;53144;51.524;5.080;2022-10-14T07:43:56;13.95;98.93
66343;DHT22;53144;51.524;5.080;2022-10-14T07:46:24;13.96;98.93
66343;DHT22;53144;51.524;5.080;2022-10-14T07:49:02;13.98;98.87
66343;DHT22;53144;51.524;5.080;2022-10-14T07:51:28;14.02;98.82
66343;DHT22;53144;51.524;5.080;2022-10-14T07:53:54;14.03;98.74
66343;DHT22;53144;51.524;5.080;2022-10-14T07:56:20;14.00;98.68
66343;DHT22;53144;51.524;5.080;2022-10-14T07:58:46;14.03;98.42
66343;DHT22;53144;51.524;5.080;2022-10-14T08:01:12;14.08;98.51
66343;DHT22;53144;51.524;5.080;2022-10-14T08:03:39;14.12;98.36
66343;DHT22;53144;51.524;5.080;2022-10-14T08:06:05;14.09;98.35
66343;DHT22;53144;51.524;5.080;2022-10-14T08:08:31;14.09;98.38
66343;DHT22;53144;51.524;5.080;2022-10-14T08:11:08;14.10;98.37
66343;DHT22;53144;51.524;5.080;2022-10-14T08:13:34;14.14;98.27
66343;DHT22;53144;51.524;5.080;2022-10-14T08:15:59;14.17;98.24
66343;DHT22;53144;51.524;5.080;2022-10-14T08:18:25;14.16;98.19
66343;DHT22;53144;51.524;5.080;2022-10-14T08:20:51;14.17;97.99
66343;DHT22;53144;51.524;5.080;2022-10-14T08:23:16;14.21;98.09
66343;DHT22;53144;51.524;5.080;2022-10-14T08:25:42;14.21;97.97
66343;DHT22;53144;51.524;5.080;2022-10-14T08:28:08;14.21;98.01
66343;DHT22;53144;51.524;5.080;2022-10-14T08:30:33;14.19;98.08
66343;DHT22;53144;51.524;5.080;2022-10-14T08:32:59;14.19;98.16
66343;DHT22;53144;51.524;5.080;2022-10-14T08:35:24;14.20;98.35
66343;DHT22;53144;51.524;5.080;2022-10-14T08:38:00;14.21;98.72
66343;DHT22;53144;51.524;5.080;2022-10-14T08:40:32;14.23;98.71
66343;DHT22;53144;51.524;5.080;2022-10-14T08:43:14;14.24;98.53
66343;DHT22;53144;51.524;5.080;2022-10-14T08:45:47;14.29;98.59
66343;DHT22;53144;51.524;5.080;2022-10-14T08:48:18;14.30;98.73
66343;DHT22;53144;51.524;5.080;2022-10-14T08:50:50;14.36;98.53
66343;DHT22;53144;51.524;5.080;2022-10-14T08:53:23;14.38;98.45
66343;DHT22;53144;51.524;5.080;2022-10-14T08:55:54;14.36;98.28
66343;DHT22;53144;51.524;5.080;2022-10-14T08:58:25;14.38;98.30
66343;DHT22;53144;51.524;5.080;2022-10-14T09:00:59;14.45;98.30
66343;DHT22;53144;51.524;5.080;2022-10-14T09:03:29;14.45;97.96
66343;DHT22;53144;51.524;5.080;2022-10-14T09:06:11;14.48;98.03
66343;DHT22;53144;51.524;5.080;2022-10-14T09:08:42;14.56;97.84
66343;DHT22;53144;51.524;5.080;2022-10-14T09:11:12;14.57;97.58
66343;DHT22;53144;51.524;5.080;2022-10-14T09:13:40;14.58;97.44
66343;DHT22;53144;51.524;5.080;2022-10-14T09:18:52;14.64;97.59
66343;DHT22;53144;51.524;5.080;2022-10-14T09:24:00;14.72;97.51
66343;DHT22;53144;51.524;5.080;2022-10-14T09:26:40;14.72;96.99
66343;DHT22;53144;51.524;5.080;2022-10-14T09:29:26;14.72;96.88
66343;DHT22;53144;51.524;5.080;2022-10-14T09:31:56;14.77;96.81
66343;DHT22;53144;51.524;5.080;2022-10-14T09:36:59;14.79;96.60
66343;DHT22;53144;51.524;5.080;2022-10-14T09:39:26;14.84;96.71
66343;DHT22;53144;51.524;5.080;2022-10-14T09:41:53;14.92;96.50
66343;DHT22;53144;51.524;5.080;2022-10-14T09:44:23;14.96;96.49
66343;DHT22;53144;51.524;5.080;2022-10-14T09:46:55;15.05;96.24
66343;DHT22;53144;51.524;5.080;2022-10-14T09:49:36;15.13;96.36
66343;DHT22;53144;51.524;5.080;2022-10-14T09:52:03;15.12;96.36
66343;DHT22;53144;51.524;5.080;2022-10-14T09:54:30;15.08;96.35
66343;DHT22;53144;51.524;5.080;2022-10-14T09:57:05;15.06;96.38
66343;DHT22;53144;51.524;5.080;2022-10-14T09:59:36;15.02;97.22
66343;DHT22;53144;51.524;5.080;2022-10-14T10:02:20;14.95;96.81
66343;DHT22;53144;51.524;5.080;2022-10-14T10:04:48;14.88;97.18
66343;DHT22;53144;51.524;5.080;2022-10-14T10:07:33;14.81;97.27
66343;DHT22;53144;51.524;5.080;2022-10-14T10:10:02;14.78;97.65
66343;DHT22;53144;51.524;5.080;2022-10-14T10:12:32;14.75;97.76
66343;DHT22;53144;51.524;5.080;2022-10-14T10:15:00;14.77;97.96
66343;DHT22;53144;51.524;5.080;2022-10-14T10:17:31;14.77;98.31
66343;DHT22;53144;51.524;5.080;2022-10-14T10:22:44;14.75;98.47
66343;DHT22;53144;51.524;5.080;2022-10-14T10:27:43;14.85;98.51
66343;DHT22;53144;51.524;5.080;2022-10-14T10:43:35;14.91;98.66
66343;DHT22;53144;51.524;5.080;2022-10-14T10:46:43;14.89;98.58
66343;DHT22;53144;51.524;5.080;2022-10-14T10:57:17;14.93;98.41
66343;DHT22;53144;51.524;5.080;2022-10-14T11:00:02;14.95;98.38
66343;DHT22;53144;51.524;5.080;2022-10-14T11:02:51;15.00;98.49
66343;DHT22;53144;51.524;5.080;2022-10-14T11:11:12;15.00;98.47
66343;DHT22;53144;51.524;5.080;2022-10-14T11:17:03;15.03;98.17
66343;DHT22;53144;51.524;5.080;2022-10-14T11:19:35;15.08;98.24
66343;DHT22;53144;51.524;5.080;2022-10-14T11:27:45;15.12;98.07
66343;DHT22;53144;51.524;5.080;2022-10-14T11:30:31;15.13;98.08
66343;DHT22;53144;51.524;5.080;2022-10-14T11:33:37;15.15;98.37
66343;DHT22;53144;51.524;5.080;2022-10-14T11:36:20;15.15;98.17
66343;DHT22;53144;51.524;5.080;2022-10-14T11:44:39;15.06;98.61
66343;DHT22;53144;51.524;5.080;2022-10-14T11:50:14;15.05;98.60
66343;DHT22;53144;51.524;5.080;2022-10-14T11:55:18;15.09;98.84
66343;DHT22;53144;51.524;5.080;2022-10-14T11:57:50;15.18;98.95
66343;DHT22;53144;51.524;5.080;2022-10-14T12:00:19;15.26;98.88
66343;DHT22;53144;51.524;5.080;2022-10-14T12:11:32;15.19;98.67
66343;DHT22;53144;51.524;5.080;2022-10-14T12:14:13;15.20;98.82
66343;DHT22;53144;51.524;5.080;2022-10-14T12:16:44;15.23;98.81
66343;DHT22;53144;51.524;5.080;2022-10-14T12:19:12;15.19;98.75
66343;DHT22;53144;51.524;5.080;2022-10-14T12:21:52;15.20;98.87
66343;DHT22;53144;51.524;5.080;2022-10-14T12:24:23;15.29;98.89
66343;DHT22;53144;51.524;5.080;2022-10-14T12:27:10;15.40;98.84
66343;DHT22;53144;51.524;5.080;2022-10-14T12:29:42;15.43;98.35
66343;DHT22;53144;51.524;5.080;2022-10-14T12:34:43;15.46;98.38
66343;DHT22;53144;51.524;5.080;2022-10-14T12:45:20;15.54;98.09
66343;DHT22;53144;51.524;5.080;2022-10-14T12:47:47;15.51;97.49
66343;DHT22;53144;51.524;5.080;2022-10-14T12:50:33;15.57;97.33
66343;DHT22;53144;51.524;5.080;2022-10-14T12:53:02;15.57;97.58
66343;DHT22;53144;51.524;5.080;2022-10-14T12:55:30;15.54;97.56
66343;DHT22;53144;51.524;5.080;2022-10-14T12:58:02;15.56;97.40
66343;DHT22;53144;51.524;5.080;2022-10-14T13:00:39;15.60;97.28
66343;DHT22;53144;51.524;5.080;2022-10-14T13:03:13;15.67;97.22
66343;DHT22;53144;51.524;5.080;2022-10-14T13:05:44;15.70;96.94
66343;DHT22;53144;51.524;5.080;2022-10-14T13:08:21;15.74;97.09
66343;DHT22;53144;51.524;5.080;2022-10-14T13:19:02;15.80;96.53
66343;DHT22;53144;51.524;5.080;2022-10-14T13:37:31;15.54;97.48
66343;DHT22;53144;51.524;5.080;2022-10-14T13:40:44;15.56;97.41
66343;DHT22;53144;51.524;5.080;2022-10-14T13:42:47;15.54;97.69
66343;DHT22;53144;51.524;5.080;2022-10-14T13:45:15;15.50;97.81
66343;DHT22;53144;51.524;5.080;2022-10-14T13:47:46;15.47;97.87
66343;DHT22;53144;51.524;5.080;2022-10-14T13:50:15;15.43;97.97
66343;DHT22;53144;51.524;5.080;2022-10-14T13:52:48;15.50;98.08
66343;DHT22;53144;51.524;5.080;2022-10-14T13:55:21;15.42;97.05
66343;DHT22;53144;51.524;5.080;2022-10-14T14:00:34;15.43;97.41
66343;DHT22;53144;51.524;5.080;2022-10-14T14:03:20;15.50;97.22
66343;DHT22;53144;51.524;5.080;2022-10-14T14:05:50;15.47;96.24
66343;DHT22;53144;51.524;5.080;2022-10-14T14:08:28;15.50;96.53
66343;DHT22;53144;51.524;5.080;2022-10-14T14:11:00;15.49;96.34
66343;DHT22;53144;51.524;5.080;2022-10-14T14:13:32;15.60;96.54
66343;DHT22;53144;51.524;5.080;2022-10-14T14:16:00;15.66;96.12
66343;DHT22;53144;51.524;5.080;2022-10-14T14:18:36;15.75;95.97
66343;DHT22;53144;51.524;5.080;2022-10-14T14:21:05;15.77;95.73
66343;DHT22;53144;51.524;5.080;2022-10-14T14:23:35;15.78;95.57
66343;DHT22;53144;51.524;5.080;2022-10-14T14:26:00;15.78;95.34
66343;DHT22;53144;51.524;5.080;2022-10-14T14:28:29;15.84;95.37
66343;DHT22;53144;51.524;5.080;2022-10-14T14:30:56;15.85;95.16
66343;DHT22;53144;51.524;5.080;2022-10-14T14:33:35;15.78;95.03
66343;DHT22;53144;51.524;5.080;2022-10-14T14:36:02;15.80;95.19
66343;DHT22;53144;51.524;5.080;2022-10-14T14:41:13;15.93;95.55
66343;DHT22;53144;51.524;5.080;2022-10-14T14:43:42;15.88;96.06
66343;DHT22;53144;51.524;5.080;2022-10-14T14:46:15;15.84;95.78
66343;DHT22;53144;51.524;5.080;2022-10-14T14:48:43;15.78;95.98
66343;DHT22;53144;51.524;5.080;2022-10-14T14:51:11;15.74;95.53
66343;DHT22;53144;51.524;5.080;2022-10-14T14:53:37;15.70;95.81
66343;DHT22;53144;51.524;5.080;2022-10-14T14:56:11;15.68;95.99
66343;DHT22;53144;51.524;5.080;2022-10-14T14:58:46;15.60;94.54
66343;DHT22;53144;51.524;5.080;2022-10-14T15:01:27;15.58;94.35
66343;DHT22;53144;51.524;5.080;2022-10-14T15:04:04;15.60;94.14
66343;DHT22;53144;51.524;5.080;2022-10-14T15:06:32;15.58;93.94
66343;DHT22;53144;51.524;5.080;2022-10-14T15:09:08;15.56;94.26
66343;DHT22;53144;51.524;5.080;2022-10-14T15:11:46;15.54;94.40
66343;DHT22;53144;51.524;5.080;2022-10-14T15:14:32;15.46;94.45
66343;DHT22;53144;51.524;5.080;2022-10-14T15:16:58;15.44;94.43
66343;DHT22;53144;51.524;5.080;2022-10-14T15:19:25;15.39;94.70
66343;DHT22;53144;51.524;5.080;2022-10-14T15:22:20;15.36;94.76
66343;DHT22;53144;51.524;5.080;2022-10-14T15:25:05;15.35;95.60
66343;DHT22;53144;51.524;5.080;2022-10-14T15:30:31;15.32;95.57
66343;DHT22;53144;51.524;5.080;2022-10-14T15:35:42;15.20;95.22
66343;DHT22;53144;51.524;5.080;2022-10-14T15:38:14;15.16;95.42
66343;DHT22;53144;51.524;5.080;2022-10-14T15:40:41;15.13;95.96
66343;DHT22;53144;51.524;5.080;2022-10-14T15:43:22;15.13;96.33
66343;DHT22;53144;51.524;5.080;2022-10-14T15:45:49;15.06;96.51
66343;DHT22;53144;51.524;5.080;2022-10-14T15:48:34;15.05;96.45
66343;DHT22;53144;51.524;5.080;2022-10-14T15:51:00;14.98;96.14
66343;DHT22;53144;51.524;5.080;2022-10-14T15:53:26;14.96;96.51
66343;DHT22;53144;51.524;5.080;2022-10-14T15:56:10;14.91;96.40
66343;DHT22;53144;51.524;5.080;2022-10-14T15:58:35;14.88;96.47
66343;DHT22;53144;51.524;5.080;2022-10-14T16:01:02;14.87;96.64
66343;DHT22;53144;51.524;5.080;2022-10-14T16:03:29;14.77;97.00
66343;DHT22;53144;51.524;5.080;2022-10-14T16:05:56;14.74;96.94
66343;DHT22;53144;51.524;5.080;2022-10-14T16:08:22;14.71;96.91
66343;DHT22;53144;51.524;5.080;2022-10-14T16:10:47;14.67;96.83
66343;DHT22;53144;51.524;5.080;2022-10-14T16:13:13;14.61;97.14
66343;DHT22;53144;51.524;5.080;2022-10-14T16:15:47;14.57;97.34
66343;DHT22;53144;51.524;5.080;2022-10-14T16:18:13;14.48;97.49
66343;DHT22;53144;51.524;5.080;2022-10-14T16:20:39;14.45;97.59
66343;DHT22;53144;51.524;5.080;2022-10-14T16:23:05;14.42;97.64
66343;DHT22;53144;51.524;5.080;2022-10-14T16:25:38;14.40;97.70
66343;DHT22;53144;51.524;5.080;2022-10-14T16:28:07;14.40;97.77
66343;DHT22;53144;51.524;5.080;2022-10-14T16:30:38;14.38;97.79
66343;DHT22;53144;51.524;5.080;2022-10-14T16:33:04;14.38;97.63
66343;DHT22;53144;51.524;5.080;2022-10-14T16:35:30;14.34;97.92
66343;DHT22;53144;51.524;5.080;2022-10-14T16:37:56;14.34;97.60
66343;DHT22;53144;51.524;5.080;2022-10-14T16:40:22;14.33;97.42
66343;DHT22;53144;51.524;5.080;2022-10-14T16:42:47;14.31;97.24
66343;DHT22;53144;51.524;5.080;2022-10-14T16:45:13;14.26;97.05
66343;DHT22;53144;51.524;5.080;2022-10-14T16:47:39;14.24;96.76
66343;DHT22;53144;51.524;5.080;2022-10-14T16:50:06;14.19;96.91
66343;DHT22;53144;51.524;5.080;2022-10-14T16:52:32;14.09;97.15
66343;DHT22;53144;51.524;5.080;2022-10-14T16:55:17;13.99;97.40
66343;DHT22;53144;51.524;5.080;2022-10-14T16:57:43;13.93;97.37
66343;DHT22;53144;51.524;5.080;2022-10-14T17:00:09;13.85;97.56
66343;DHT22;53144;51.524;5.080;2022-10-14T17:02:34;13.76;97.82
66343;DHT22;53144;51.524;5.080;2022-10-14T17:04:59;13.73;97.71
66343;DHT22;53144;51.524;5.080;2022-10-14T17:07:25;13.66;97.92
66343;DHT22;53144;51.524;5.080;2022-10-14T17:09:50;13.62;98.02
66343;DHT22;53144;51.524;5.080;2022-10-14T17:12:16;13.52;98.06
66343;DHT22;53144;51.524;5.080;2022-10-14T17:14:41;13.51;98.16
66343;DHT22;53144;51.524;5.080;2022-10-14T17:17:07;13.52;98.22
66343;DHT22;53144;51.524;5.080;2022-10-14T17:19:32;13.52;98.03
66343;DHT22;53144;51.524;5.080;2022-10-14T17:21:58;13.49;98.15
66343;DHT22;53144;51.524;5.080;2022-10-14T17:24:26;13.47;98.19
66343;DHT22;53144;51.524;5.080;2022-10-14T17:26:51;13.47;98.14
66343;DHT22;53144;51.524;5.080;2022-10-14T17:29:17;13.42;98.08
66343;DHT22;53144;51.524;5.080;2022-10-14T17:31:42;13.35;98.15
66343;DHT22;53144;51.524;5.080;2022-10-14T17:34:08;13.30;98.28
66343;DHT22;53144;51.524;5.080;2022-10-14T17:36:34;13.25;98.34
66343;DHT22;53144;51.524;5.080;2022-10-14T17:38:59;13.24;98.39
66343;DHT22;53144;51.524;5.080;2022-10-14T17:41:26;13.24;98.51
66343;DHT22;53144;51.524;5.080;2022-10-14T17:43:53;13.24;98.50
66343;DHT22;53144;51.524;5.080;2022-10-14T17:46:20;13.21;98.53
66343;DHT22;53144;51.524;5.080;2022-10-14T17:48:52;13.18;98.71
66343;DHT22;53144;51.524;5.080;2022-10-14T17:51:18;13.18;98.72
66343;DHT22;53144;51.524;5.080;2022-10-14T17:53:48;13.15;98.69
66343;DHT22;53144;51.524;5.080;2022-10-14T17:56:13;13.20;98.73
66343;DHT22;53144;51.524;5.080;2022-10-14T17:58:39;13.12;98.76
66343;DHT22;53144;51.524;5.080;2022-10-14T18:01:07;13.15;98.60
66343;DHT22;53144;51.524;5.080;2022-10-14T18:03:35;13.14;98.60
66343;DHT22;53144;51.524;5.080;2022-10-14T18:06:30;13.10;98.59
66343;DHT22;53144;51.524;5.080;2022-10-14T18:09:05;13.06;98.58